sensor_id;sensor_type;location;lat;lon;timestamp;temperature;humidity
21592;DHT22;10958;50.892;3.992;2023-09-19T00:00:47;15.70;99.90
21592;DHT22;10958;50.892;3.992;2023-09-19T00:03:14;15.90;99.90
21592;DHT22;10958;50.892;3.992;2023-09-19T00:05:43;16.00;99.90
21592;DHT22;10958;50.892;3.992;2023-09-19T00:08:10;16.00;99.90
21592;DHT22;10958;50.892;3.992;2023-09-19T00:10:38;15.90;99.90
21592;DHT22;10958;50.892;3.992;2023-09-19T00:13:06;15.80;99.90
21592;DHT22;10958;50.892;3.992;2023-09-19T00:15:40;15.70;99.90
21592;DHT22;10958;50.892;3.992;2023-09-19T00:18:17;15.80;99.90
21592;DHT22;10958;50.892;3.992;2023-09-19T00:23:22;15.60;99.90
21592;DHT22;10958;50.892;3.992;2023-09-19T00:28:23;15.50;99.90
21592;DHT22;10958;50.892;3.992;2023-09-19T00:30:53;15.70;99.90
21592;DHT22;10958;50.892;3.992;2023-09-19T00:33:21;15.60;99.90
21592;DHT22;10958;50.892;3.992;2023-09-19T00:35:52;15.50;99.90
21592;DHT22;10958;50.892;3.992;2023-09-19T00:38:22;15.50;99.90
21592;DHT22;10958;50.892;3.992;2023-09-19T00:40:54;15.50;99.90
21592;DHT22;10958;50.892;3.992;2023-09-19T00:43:22;15.50;99.90
21592;DHT22;10958;50.892;3.992;2023-09-19T00:45:51;15.40;99.90
21592;DHT22;10958;50.892;3.992;2023-09-19T00:48:24;15.40;99.90
21592;DHT22;10958;50.892;3.992;2023-09-19T00:50:53;15.40;99.90
21592;DHT22;10958;50.892;3.992;2023-09-19T00:53:22;15.50;99.90
21592;DHT22;10958;50.892;3.992;2023-09-19T00:55:53;15.30;99.90
21592;DHT22;10958;50.892;3.992;2023-09-19T00:58:19;15.40;99.90
21592;DHT22;10958;50.892;3.992;2023-09-19T01:00:49;15.40;99.90
21592;DHT22;10958;50.892;3.992;2023-09-19T01:03:16;15.30;99.90
21592;DHT22;10958;50.892;3.992;2023-09-19T01:05:46;15.40;99.90
21592;DHT22;10958;50.892;3.992;2023-09-19T01:08:16;15.40;99.90
21592;DHT22;10958;50.892;3.992;2023-09-19T01:10:56;15.60;99.90
21592;DHT22;10958;50.892;3.992;2023-09-19T01:19:25;15.50;99.90
21592;DHT22;10958;50.892;3.992;2023-09-19T01:22:05;15.30;99.90
21592;DHT22;10958;50.892;3.992;2023-09-19T01:29:48;15.40;99.90
21592;DHT22;10958;50.892;3.992;2023-09-19T01:32:19;15.40;99.90
21592;DHT22;10958;50.892;3.992;2023-09-19T01:34:55;15.30;99.90
21592;DHT22;10958;50.892;3.992;2023-09-19T01:37:37;15.30;99.90
21592;DHT22;10958;50.892;3.992;2023-09-19T01:40:06;15.30;99.90
21592;DHT22;10958;50.892;3.992;2023-09-19T01:43:09;15.30;99.90
21592;DHT22;10958;50.892;3.992;2023-09-19T01:48:23;15.30;99.90
21592;DHT22;10958;50.892;3.992;2023-09-19T01:50:59;15.50;99.90
21592;DHT22;10958;50.892;3.992;2023-09-19T01:53:35;15.50;99.90
21592;DHT22;10958;50.892;3.992;2023-09-19T01:56:08;15.50;99.90
21592;DHT22;10958;50.892;3.992;2023-09-19T01:58:42;15.50;99.90
21592;DHT22;10958;50.892;3.992;2023-09-19T02:01:17;15.40;99.90
21592;DHT22;10958;50.892;3.992;2023-09-19T02:03:47;15.50;99.90
21592;DHT22;10958;50.892;3.992;2023-09-19T02:06:17;15.40;99.90
21592;DHT22;10958;50.892;3.992;2023-09-19T02:08:45;15.60;99.90
21592;DHT22;10958;50.892;3.992;2023-09-19T02:11:13;15.50;99.90
21592;DHT22;10958;50.892;3.992;2023-09-19T02:13:39;15.60;99.90
21592;DHT22;10958;50.892;3.992;2023-09-19T02:16:09;15.60;99.90
21592;DHT22;10958;50.892;3.992;2023-09-19T02:18:36;15.50;99.90
21592;DHT22;10958;50.892;3.992;2023-09-19T02:21:02;15.40;99.90
21592;DHT22;10958;50.892;3.992;2023-09-19T02:23:30;15.40;99.90
21592;DHT22;10958;50.892;3.992;2023-09-19T02:25:56;15.40;99.90
21592;DHT22;10958;50.892;3.992;2023-09-19T02:28:29;15.30;99.90
21592;DHT22;10958;50.892;3.992;2023-09-19T02:30:58;15.20;99.90
21592;DHT22;10958;50.892;3.992;2023-09-19T02:33:28;15.20;99.90
21592;DHT22;10958;50.892;3.992;2023-09-19T02:35:58;15.20;99.90
21592;DHT22;10958;50.892;3.992;2023-09-19T02:38:28;15.20;99.90
21592;DHT22;10958;50.892;3.992;2023-09-19T02:40:54;15.20;99.90
21592;DHT22;10958;50.892;3.992;2023-09-19T02:43:21;15.20;99.90
21592;DHT22;10958;50.892;3.992;2023-09-19T02:45:48;15.20;99.90
21592;DHT22;10958;50.892;3.992;2023-09-19T02:48:19;15.00;99.90
21592;DHT22;10958;50.892;3.992;2023-09-19T02:50:45;15.20;99.90
21592;DHT22;10958;50.892;3.992;2023-09-19T02:53:12;15.20;99.90
21592;DHT22;10958;50.892;3.992;2023-09-19T02:55:38;15.20;99.90
21592;DHT22;10958;50.892;3.992;2023-09-19T02:58:06;15.20;99.90
21592;DHT22;10958;50.892;3.992;2023-09-19T03:00:37;15.20;99.90
21592;DHT22;10958;50.892;3.992;2023-09-19T03:03:03;15.20;99.90
21592;DHT22;10958;50.892;3.992;2023-09-19T03:05:31;15.20;99.90
21592;DHT22;10958;50.892;3.992;2023-09-19T03:07:58;15.20;99.90
21592;DHT22;10958;50.892;3.992;2023-09-19T03:18:14;15.00;99.90
21592;DHT22;10958;50.892;3.992;2023-09-19T03:20:43;15.00;99.90
21592;DHT22;10958;50.892;3.992;2023-09-19T03:23:10;15.00;99.90
21592;DHT22;10958;50.892;3.992;2023-09-19T03:25:36;14.90;99.90
21592;DHT22;10958;50.892;3.992;2023-09-19T03:28:03;14.90;99.90
21592;DHT22;10958;50.892;3.992;2023-09-19T03:30:31;14.90;99.90
21592;DHT22;10958;50.892;3.992;2023-09-19T03:33:00;14.90;99.90
21592;DHT22;10958;50.892;3.992;2023-09-19T03:35:26;14.90;99.90
21592;DHT22;10958;50.892;3.992;2023-09-19T03:37:55;14.90;99.90
21592;DHT22;10958;50.892;3.992;2023-09-19T03:40:21;14.80;99.90
21592;DHT22;10958;50.892;3.992;2023-09-19T03:42:49;14.80;99.90
21592;DHT22;10958;50.892;3.992;2023-09-19T03:45:15;14.90;99.90
21592;DHT22;10958;50.892;3.992;2023-09-19T03:47:42;14.80;99.90
21592;DHT22;10958;50.892;3.992;2023-09-19T03:50:13;14.80;99.90
21592;DHT22;10958;50.892;3.992;2023-09-19T03:52:45;14.70;99.90
21592;DHT22;10958;50.892;3.992;2023-09-19T03:55:11;14.70;99.90
21592;DHT22;10958;50.892;3.992;2023-09-19T03:57:38;14.80;99.90
21592;DHT22;10958;50.892;3.992;2023-09-19T04:00:05;14.70;99.90
21592;DHT22;10958;50.892;3.992;2023-09-19T04:02:37;14.80;99.90
21592;DHT22;10958;50.892;3.992;2023-09-19T04:05:04;14.70;99.90
21592;DHT22;10958;50.892;3.992;2023-09-19T04:10:06;14.60;99.90
21592;DHT22;10958;50.892;3.992;2023-09-19T04:12:38;14.60;99.90
21592;DHT22;10958;50.892;3.992;2023-09-19T04:15:07;14.60;99.90
21592;DHT22;10958;50.892;3.992;2023-09-19T04:17:34;14.60;99.90
21592;DHT22;10958;50.892;3.992;2023-09-19T04:20:00;14.50;99.90
21592;DHT22;10958;50.892;3.992;2023-09-19T04:22:26;14.50;99.90
21592;DHT22;10958;50.892;3.992;2023-09-19T04:24:52;14.30;99.90
21592;DHT22;10958;50.892;3.992;2023-09-19T04:27:18;14.30;99.90
21592;DHT22;10958;50.892;3.992;2023-09-19T04:29:44;14.30;99.90
21592;DHT22;10958;50.892;3.992;2023-09-19T04:32:10;14.20;99.90
21592;DHT22;10958;50.892;3.992;2023-09-19T04:34:37;14.20;99.90
21592;DHT22;10958;50.892;3.992;2023-09-19T04:37:06;14.10;99.90
21592;DHT22;10958;50.892;3.992;2023-09-19T04:39:31;14.20;99.90
21592;DHT22;10958;50.892;3.992;2023-09-19T04:41:57;14.10;99.90
21592;DHT22;10958;50.892;3.992;2023-09-19T04:44:25;14.20;99.90
21592;DHT22;10958;50.892;3.992;2023-09-19T04:46:51;14.10;99.90
21592;DHT22;10958;50.892;3.992;2023-09-19T04:49:17;14.10;99.90
21592;DHT22;10958;50.892;3.992;2023-09-19T04:51:43;14.10;99.90
21592;DHT22;10958;50.892;3.992;2023-09-19T04:54:12;14.00;99.90
21592;DHT22;10958;50.892;3.992;2023-09-19T04:56:38;14.00;99.90
21592;DHT22;10958;50.892;3.992;2023-09-19T04:59:05;14.00;99.90
21592;DHT22;10958;50.892;3.992;2023-09-19T05:01:31;14.00;99.90
21592;DHT22;10958;50.892;3.992;2023-09-19T05:03:59;14.00;99.90
21592;DHT22;10958;50.892;3.992;2023-09-19T05:06:25;14.00;99.90
21592;DHT22;10958;50.892;3.992;2023-09-19T05:08:52;14.20;99.90
21592;DHT22;10958;50.892;3.992;2023-09-19T05:11:18;14.20;99.90
21592;DHT22;10958;50.892;3.992;2023-09-19T05:13:45;14.20;99.90
21592;DHT22;10958;50.892;3.992;2023-09-19T05:16:11;14.20;99.90
21592;DHT22;10958;50.892;3.992;2023-09-19T05:18:38;14.30;99.90
21592;DHT22;10958;50.892;3.992;2023-09-19T05:21:05;14.30;99.90
21592;DHT22;10958;50.892;3.992;2023-09-19T05:23:31;14.40;99.90
21592;DHT22;10958;50.892;3.992;2023-09-19T05:25:57;14.40;99.90
21592;DHT22;10958;50.892;3.992;2023-09-19T05:28:25;14.40;99.90
21592;DHT22;10958;50.892;3.992;2023-09-19T05:30:52;14.40;99.90
21592;DHT22;10958;50.892;3.992;2023-09-19T05:33:19;14.30;99.90
21592;DHT22;10958;50.892;3.992;2023-09-19T05:35:47;14.40;99.90
21592;DHT22;10958;50.892;3.992;2023-09-19T05:38:13;14.40;99.90
21592;DHT22;10958;50.892;3.992;2023-09-19T05:40:40;14.40;99.90
21592;DHT22;10958;50.892;3.992;2023-09-19T05:43:11;14.40;99.90
21592;DHT22;10958;50.892;3.992;2023-09-19T05:45:37;14.40;99.90
21592;DHT22;10958;50.892;3.992;2023-09-19T05:48:12;14.40;99.90
21592;DHT22;10958;50.892;3.992;2023-09-19T05:50:41;14.40;99.90
21592;DHT22;10958;50.892;3.992;2023-09-19T05:53:06;14.50;99.90
21592;DHT22;10958;50.892;3.992;2023-09-19T05:55:32;14.40;99.90
21592;DHT22;10958;50.892;3.992;2023-09-19T05:58:01;14.50;99.90
21592;DHT22;10958;50.892;3.992;2023-09-19T06:00:29;14.50;99.90
21592;DHT22;10958;50.892;3.992;2023-09-19T06:02:56;14.50;99.90
21592;DHT22;10958;50.892;3.992;2023-09-19T06:05:25;14.50;99.90
21592;DHT22;10958;50.892;3.992;2023-09-19T06:07:56;14.70;99.90
21592;DHT22;10958;50.892;3.992;2023-09-19T06:10:25;14.70;99.90
21592;DHT22;10958;50.892;3.992;2023-09-19T06:12:53;14.80;99.90
21592;DHT22;10958;50.892;3.992;2023-09-19T06:15:20;14.80;99.90
21592;DHT22;10958;50.892;3.992;2023-09-19T06:17:54;14.80;99.90
21592;DHT22;10958;50.892;3.992;2023-09-19T06:20:21;14.90;99.90
21592;DHT22;10958;50.892;3.992;2023-09-19T06:22:48;15.00;99.90
21592;DHT22;10958;50.892;3.992;2023-09-19T06:25:15;15.00;99.90
21592;DHT22;10958;50.892;3.992;2023-09-19T06:27:51;15.00;99.90
21592;DHT22;10958;50.892;3.992;2023-09-19T06:30:19;15.10;99.90
21592;DHT22;10958;50.892;3.992;2023-09-19T06:32:45;15.10;99.90
21592;DHT22;10958;50.892;3.992;2023-09-19T06:35:12;15.10;99.90
21592;DHT22;10958;50.892;3.992;2023-09-19T06:37:39;15.10;99.90
21592;DHT22;10958;50.892;3.992;2023-09-19T06:40:09;15.20;99.90
21592;DHT22;10958;50.892;3.992;2023-09-19T06:42:41;15.20;99.90
21592;DHT22;10958;50.892;3.992;2023-09-19T06:45:08;15.30;99.90
21592;DHT22;10958;50.892;3.992;2023-09-19T06:47:36;15.30;99.90
21592;DHT22;10958;50.892;3.992;2023-09-19T06:50:02;15.50;99.90
21592;DHT22;10958;50.892;3.992;2023-09-19T06:52:28;15.50;99.90
21592;DHT22;10958;50.892;3.992;2023-09-19T06:54:54;15.60;99.90
21592;DHT22;10958;50.892;3.992;2023-09-19T06:57:20;15.70;99.90
21592;DHT22;10958;50.892;3.992;2023-09-19T06:59:46;15.70;99.90
21592;DHT22;10958;50.892;3.992;2023-09-19T07:02:12;15.80;99.90
21592;DHT22;10958;50.892;3.992;2023-09-19T07:04:40;16.10;99.90
21592;DHT22;10958;50.892;3.992;2023-09-19T07:07:10;16.20;99.90
21592;DHT22;10958;50.892;3.992;2023-09-19T07:09:37;16.50;99.90
21592;DHT22;10958;50.892;3.992;2023-09-19T07:12:03;16.90;99.90
21592;DHT22;10958;50.892;3.992;2023-09-19T07:14:29;17.00;99.90
21592;DHT22;10958;50.892;3.992;2023-09-19T07:16:55;17.30;99.90
21592;DHT22;10958;50.892;3.992;2023-09-19T07:19:21;17.50;99.90
21592;DHT22;10958;50.892;3.992;2023-09-19T07:21:47;17.70;99.90
21592;DHT22;10958;50.892;3.992;2023-09-19T07:24:15;17.90;99.90
21592;DHT22;10958;50.892;3.992;2023-09-19T07:26:41;18.00;99.90
21592;DHT22;10958;50.892;3.992;2023-09-19T07:29:07;18.00;99.90
21592;DHT22;10958;50.892;3.992;2023-09-19T07:31:34;18.20;99.90
21592;DHT22;10958;50.892;3.992;2023-09-19T07:34:00;18.20;99.90
21592;DHT22;10958;50.892;3.992;2023-09-19T07:36:25;18.40;99.90
21592;DHT22;10958;50.892;3.992;2023-09-19T07:38:51;18.70;99.90
21592;DHT22;10958;50.892;3.992;2023-09-19T07:41:22;18.90;99.90
21592;DHT22;10958;50.892;3.992;2023-09-19T07:43:51;18.80;99.90
21592;DHT22;10958;50.892;3.992;2023-09-19T07:46:17;18.80;99.90
21592;DHT22;10958;50.892;3.992;2023-09-19T07:48:43;18.90;99.90
21592;DHT22;10958;50.892;3.992;2023-09-19T07:51:16;18.90;99.90
21592;DHT22;10958;50.892;3.992;2023-09-19T07:53:42;19.20;99.90
21592;DHT22;10958;50.892;3.992;2023-09-19T07:56:09;19.20;99.90
21592;DHT22;10958;50.892;3.992;2023-09-19T07:58:36;19.20;99.90
21592;DHT22;10958;50.892;3.992;2023-09-19T08:01:08;19.50;99.90
21592;DHT22;10958;50.892;3.992;2023-09-19T08:03:34;19.60;99.90
21592;DHT22;10958;50.892;3.992;2023-09-19T08:06:01;19.80;99.90
21592;DHT22;10958;50.892;3.992;2023-09-19T08:08:29;19.60;99.90
21592;DHT22;10958;50.892;3.992;2023-09-19T08:10:56;19.50;99.90
21592;DHT22;10958;50.892;3.992;2023-09-19T08:13:25;19.60;99.90
21592;DHT22;10958;50.892;3.992;2023-09-19T08:15:52;19.50;99.90
21592;DHT22;10958;50.892;3.992;2023-09-19T08:18:21;19.50;99.90
21592;DHT22;10958;50.892;3.992;2023-09-19T08:20:52;19.70;99.90
21592;DHT22;10958;50.892;3.992;2023-09-19T08:23:18;20.20;99.90
21592;DHT22;10958;50.892;3.992;2023-09-19T08:25:47;20.60;99.90
21592;DHT22;10958;50.892;3.992;2023-09-19T08:28:13;20.60;99.90
21592;DHT22;10958;50.892;3.992;2023-09-19T08:30:45;20.30;99.90
21592;DHT22;10958;50.892;3.992;2023-09-19T08:33:11;20.60;99.90
21592;DHT22;10958;50.892;3.992;2023-09-19T08:35:39;21.00;99.90
21592;DHT22;10958;50.892;3.992;2023-09-19T08:38:11;21.00;99.90
21592;DHT22;10958;50.892;3.992;2023-09-19T08:40:40;20.80;99.90
21592;DHT22;10958;50.892;3.992;2023-09-19T08:43:07;20.70;99.90
21592;DHT22;10958;50.892;3.992;2023-09-19T08:45:36;20.30;99.90
21592;DHT22;10958;50.892;3.992;2023-09-19T08:53:45;20.30;99.90
21592;DHT22;10958;50.892;3.992;2023-09-19T08:56:17;20.30;99.90
21592;DHT22;10958;50.892;3.992;2023-09-19T08:58:55;20.10;99.90
21592;DHT22;10958;50.892;3.992;2023-09-19T09:01:24;19.90;99.90
21592;DHT22;10958;50.892;3.992;2023-09-19T09:03:56;19.80;99.90
21592;DHT22;10958;50.892;3.992;2023-09-19T09:06:25;19.70;99.90
21592;DHT22;10958;50.892;3.992;2023-09-19T09:08:53;19.50;99.90
21592;DHT22;10958;50.892;3.992;2023-09-19T09:11:22;19.40;99.90
21592;DHT22;10958;50.892;3.992;2023-09-19T09:13:50;19.50;99.90
21592;DHT22;10958;50.892;3.992;2023-09-19T09:16:16;19.50;99.90
21592;DHT22;10958;50.892;3.992;2023-09-19T09:18:46;19.50;99.90
21592;DHT22;10958;50.892;3.992;2023-09-19T09:21:18;19.50;99.90
21592;DHT22;10958;50.892;3.992;2023-09-19T09:23:43;19.70;99.90
21592;DHT22;10958;50.892;3.992;2023-09-19T09:26:12;19.60;99.90
21592;DHT22;10958;50.892;3.992;2023-09-19T09:28:45;19.60;99.90
21592;DHT22;10958;50.892;3.992;2023-09-19T09:31:24;19.40;99.90
21592;DHT22;10958;50.892;3.992;2023-09-19T09:33:54;19.10;99.90
21592;DHT22;10958;50.892;3.992;2023-09-19T09:36:41;18.90;99.90
21592;DHT22;10958;50.892;3.992;2023-09-19T09:39:07;18.80;99.90
21592;DHT22;10958;50.892;3.992;2023-09-19T09:41:50;18.90;99.90
21592;DHT22;10958;50.892;3.992;2023-09-19T09:44:18;19.10;99.90
21592;DHT22;10958;50.892;3.992;2023-09-19T09:46:48;19.20;99.90
21592;DHT22;10958;50.892;3.992;2023-09-19T09:49:28;19.40;99.90
21592;DHT22;10958;50.892;3.992;2023-09-19T09:52:02;19.30;99.90
21592;DHT22;10958;50.892;3.992;2023-09-19T09:54:34;19.60;99.90
21592;DHT22;10958;50.892;3.992;2023-09-19T09:57:07;19.60;99.90
21592;DHT22;10958;50.892;3.992;2023-09-19T09:59:46;19.80;99.90
21592;DHT22;10958;50.892;3.992;2023-09-19T10:03:43;20.20;99.90
21592;DHT22;10958;50.892;3.992;2023-09-19T10:06:14;20.40;99.90
21592;DHT22;10958;50.892;3.992;2023-09-19T10:11:47;20.70;99.90
21592;DHT22;10958;50.892;3.992;2023-09-19T10:14:20;20.70;99.90
21592;DHT22;10958;50.892;3.992;2023-09-19T10:16:49;20.70;99.90
21592;DHT22;10958;50.892;3.992;2023-09-19T10:19:42;20.90;99.90
21592;DHT22;10958;50.892;3.992;2023-09-19T10:22:14;20.80;99.90
21592;DHT22;10958;50.892;3.992;2023-09-19T10:24:43;20.80;99.90
21592;DHT22;10958;50.892;3.992;2023-09-19T10:27:11;20.60;99.90
21592;DHT22;10958;50.892;3.992;2023-09-19T10:29:39;20.40;99.90
21592;DHT22;10958;50.892;3.992;2023-09-19T10:32:06;20.20;99.90
21592;DHT22;10958;50.892;3.992;2023-09-19T10:34:36;20.00;99.90
21592;DHT22;10958;50.892;3.992;2023-09-19T10:37:03;20.00;99.90
21592;DHT22;10958;50.892;3.992;2023-09-19T10:39:35;20.00;99.90
21592;DHT22;10958;50.892;3.992;2023-09-19T10:42:06;20.20;99.90
21592;DHT22;10958;50.892;3.992;2023-09-19T10:44:37;20.20;99.90
21592;DHT22;10958;50.892;3.992;2023-09-19T10:47:04;20.50;99.90
21592;DHT22;10958;50.892;3.992;2023-09-19T10:49:32;20.60;99.90
21592;DHT22;10958;50.892;3.992;2023-09-19T10:51:59;20.60;99.90
21592;DHT22;10958;50.892;3.992;2023-09-19T10:54:32;20.70;99.90
21592;DHT22;10958;50.892;3.992;2023-09-19T10:57:02;20.80;99.90
21592;DHT22;10958;50.892;3.992;2023-09-19T10:59:30;20.60;99.90
21592;DHT22;10958;50.892;3.992;2023-09-19T11:02:16;20.50;99.90
21592;DHT22;10958;50.892;3.992;2023-09-19T11:04:42;20.60;99.90
21592;DHT22;10958;50.892;3.992;2023-09-19T11:07:11;20.70;99.90
21592;DHT22;10958;50.892;3.992;2023-09-19T11:09:56;20.90;99.90
21592;DHT22;10958;50.892;3.992;2023-09-19T11:24:28;20.80;99.90
21592;DHT22;10958;50.892;3.992;2023-09-19T11:27:10;20.80;99.90
21592;DHT22;10958;50.892;3.992;2023-09-19T11:29:39;20.90;99.90
21592;DHT22;10958;50.892;3.992;2023-09-19T11:32:05;20.90;99.90
21592;DHT22;10958;50.892;3.992;2023-09-19T11:34:37;20.90;99.90
21592;DHT22;10958;50.892;3.992;2023-09-19T11:39:37;21.00;99.90
21592;DHT22;10958;50.892;3.992;2023-09-19T11:48:23;21.30;99.90
21592;DHT22;10958;50.892;3.992;2023-09-19T11:50:53;21.20;99.90
21592;DHT22;10958;50.892;3.992;2023-09-19T11:53:20;21.00;99.90
21592;DHT22;10958;50.892;3.992;2023-09-19T11:55:48;21.10;99.90
21592;DHT22;10958;50.892;3.992;2023-09-19T11:58:18;21.20;99.90
21592;DHT22;10958;50.892;3.992;2023-09-19T12:00:45;21.00;99.90
21592;DHT22;10958;50.892;3.992;2023-09-19T12:03:12;20.90;99.90
21592;DHT22;10958;50.892;3.992;2023-09-19T12:05:40;20.90;99.90
21592;DHT22;10958;50.892;3.992;2023-09-19T12:08:07;20.80;99.90
21592;DHT22;10958;50.892;3.992;2023-09-19T12:10:50;21.00;99.90
21592;DHT22;10958;50.892;3.992;2023-09-19T12:13:20;21.30;99.90
21592;DHT22;10958;50.892;3.992;2023-09-19T12:15:46;21.40;99.90
21592;DHT22;10958;50.892;3.992;2023-09-19T12:20:53;21.10;99.90
21592;DHT22;10958;50.892;3.992;2023-09-19T12:23:20;21.10;99.90
21592;DHT22;10958;50.892;3.992;2023-09-19T12:25:49;20.90;99.90
21592;DHT22;10958;50.892;3.992;2023-09-19T12:28:18;20.80;99.90
21592;DHT22;10958;50.892;3.992;2023-09-19T12:30:44;20.90;99.90
21592;DHT22;10958;50.892;3.992;2023-09-19T12:33:18;21.00;99.90
21592;DHT22;10958;50.892;3.992;2023-09-19T12:35:45;21.10;99.90
21592;DHT22;10958;50.892;3.992;2023-09-19T12:38:21;21.10;99.90
21592;DHT22;10958;50.892;3.992;2023-09-19T12:40:49;21.30;99.90
21592;DHT22;10958;50.892;3.992;2023-09-19T12:43:17;21.30;99.90
21592;DHT22;10958;50.892;3.992;2023-09-19T12:45:43;21.30;99.90
21592;DHT22;10958;50.892;3.992;2023-09-19T12:51:01;21.20;99.90
21592;DHT22;10958;50.892;3.992;2023-09-19T12:56:06;21.20;99.90
21592;DHT22;10958;50.892;3.992;2023-09-19T12:58:55;21.20;99.90
21592;DHT22;10958;50.892;3.992;2023-09-19T13:01:20;21.30;99.90
21592;DHT22;10958;50.892;3.992;2023-09-19T13:06:38;21.40;99.90
21592;DHT22;10958;50.892;3.992;2023-09-19T13:09:12;21.40;99.90
21592;DHT22;10958;50.892;3.992;2023-09-19T13:11:39;21.30;99.90
21592;DHT22;10958;50.892;3.992;2023-09-19T13:14:19;21.40;99.90
21592;DHT22;10958;50.892;3.992;2023-09-19T13:19:43;21.30;99.90
21592;DHT22;10958;50.892;3.992;2023-09-19T13:25:04;21.30;99.90
21592;DHT22;10958;50.892;3.992;2023-09-19T13:27:32;21.30;99.90
21592;DHT22;10958;50.892;3.992;2023-09-19T13:29:59;21.40;99.90
21592;DHT22;10958;50.892;3.992;2023-09-19T13:32:25;21.20;99.90
21592;DHT22;10958;50.892;3.992;2023-09-19T13:34:51;21.10;99.90
21592;DHT22;10958;50.892;3.992;2023-09-19T13:37:17;21.20;99.90
21592;DHT22;10958;50.892;3.992;2023-09-19T13:39:44;21.40;99.90
21592;DHT22;10958;50.892;3.992;2023-09-19T13:42:15;21.40;99.90
21592;DHT22;10958;50.892;3.992;2023-09-19T13:44:42;21.30;99.90
21592;DHT22;10958;50.892;3.992;2023-09-19T13:47:07;21.10;99.90
21592;DHT22;10958;50.892;3.992;2023-09-19T13:49:36;21.10;99.90
21592;DHT22;10958;50.892;3.992;2023-09-19T13:52:03;21.20;99.90
21592;DHT22;10958;50.892;3.992;2023-09-19T13:54:31;21.10;99.90
21592;DHT22;10958;50.892;3.992;2023-09-19T13:56:57;20.80;99.90
21592;DHT22;10958;50.892;3.992;2023-09-19T13:59:24;20.90;99.90
21592;DHT22;10958;50.892;3.992;2023-09-19T14:01:50;21.00;99.90
21592;DHT22;10958;50.892;3.992;2023-09-19T14:04:16;21.00;99.90
21592;DHT22;10958;50.892;3.992;2023-09-19T14:06:42;20.90;99.90
21592;DHT22;10958;50.892;3.992;2023-09-19T14:09:08;21.00;99.90
21592;DHT22;10958;50.892;3.992;2023-09-19T14:11:36;20.90;99.90
21592;DHT22;10958;50.892;3.992;2023-09-19T14:14:02;20.80;99.90
21592;DHT22;10958;50.892;3.992;2023-09-19T14:16:30;21.00;99.90
21592;DHT22;10958;50.892;3.992;2023-09-19T14:18:58;21.00;99.90
21592;DHT22;10958;50.892;3.992;2023-09-19T14:21:25;21.10;99.90
21592;DHT22;10958;50.892;3.992;2023-09-19T14:23:55;21.10;99.90
21592;DHT22;10958;50.892;3.992;2023-09-19T14:26:23;21.10;99.90
21592;DHT22;10958;50.892;3.992;2023-09-19T14:28:49;21.00;99.90
21592;DHT22;10958;50.892;3.992;2023-09-19T14:31:15;21.10;99.90
21592;DHT22;10958;50.892;3.992;2023-09-19T14:33:41;21.10;99.90
21592;DHT22;10958;50.892;3.992;2023-09-19T14:36:09;21.10;99.90
21592;DHT22;10958;50.892;3.992;2023-09-19T14:38:37;20.80;99.90
21592;DHT22;10958;50.892;3.992;2023-09-19T14:41:04;20.60;99.90
21592;DHT22;10958;50.892;3.992;2023-09-19T14:43:31;20.40;99.90
21592;DHT22;10958;50.892;3.992;2023-09-19T14:46:10;20.40;99.90
21592;DHT22;10958;50.892;3.992;2023-09-19T14:48:39;20.30;99.90
21592;DHT22;10958;50.892;3.992;2023-09-19T14:51:06;20.40;99.90
21592;DHT22;10958;50.892;3.992;2023-09-19T14:53:34;20.40;99.90
21592;DHT22;10958;50.892;3.992;2023-09-19T14:56:01;20.40;99.90
21592;DHT22;10958;50.892;3.992;2023-09-19T14:58:33;20.40;99.90
21592;DHT22;10958;50.892;3.992;2023-09-19T15:01:09;20.30;99.90
21592;DHT22;10958;50.892;3.992;2023-09-19T15:03:36;20.30;99.90
21592;DHT22;10958;50.892;3.992;2023-09-19T15:06:07;20.30;99.90
21592;DHT22;10958;50.892;3.992;2023-09-19T15:08:36;20.40;99.90
21592;DHT22;10958;50.892;3.992;2023-09-19T15:11:06;20.40;99.90
21592;DHT22;10958;50.892;3.992;2023-09-19T15:13:35;20.30;99.90
21592;DHT22;10958;50.892;3.992;2023-09-19T15:16:05;20.10;99.90
21592;DHT22;10958;50.892;3.992;2023-09-19T15:18:34;20.10;99.90
21592;DHT22;10958;50.892;3.992;2023-09-19T15:21:06;20.10;99.90
21592;DHT22;10958;50.892;3.992;2023-09-19T15:23:33;20.00;99.90
21592;DHT22;10958;50.892;3.992;2023-09-19T15:26:07;20.00;99.90
21592;DHT22;10958;50.892;3.992;2023-09-19T15:28:34;20.00;99.90
21592;DHT22;10958;50.892;3.992;2023-09-19T15:31:11;20.20;99.90
21592;DHT22;10958;50.892;3.992;2023-09-19T15:33:37;20.20;99.90
21592;DHT22;10958;50.892;3.992;2023-09-19T15:36:07;20.10;99.90
21592;DHT22;10958;50.892;3.992;2023-09-19T15:38:57;20.10;99.90
21592;DHT22;10958;50.892;3.992;2023-09-19T15:41:24;20.00;99.90
21592;DHT22;10958;50.892;3.992;2023-09-19T15:43:50;20.10;99.90
21592;DHT22;10958;50.892;3.992;2023-09-19T15:46:21;20.20;99.90
21592;DHT22;10958;50.892;3.992;2023-09-19T15:48:50;20.00;99.90
21592;DHT22;10958;50.892;3.992;2023-09-19T15:51:15;20.10;99.90
21592;DHT22;10958;50.892;3.992;2023-09-19T15:53:46;19.90;99.90
21592;DHT22;10958;50.892;3.992;2023-09-19T15:56:13;19.90;99.90
21592;DHT22;10958;50.892;3.992;2023-09-19T15:58:46;20.00;99.90
21592;DHT22;10958;50.892;3.992;2023-09-19T16:01:13;19.90;99.90
21592;DHT22;10958;50.892;3.992;2023-09-19T16:03:46;20.00;99.90
21592;DHT22;10958;50.892;3.992;2023-09-19T16:06:17;19.90;99.90
21592;DHT22;10958;50.892;3.992;2023-09-19T16:08:50;19.90;99.90
21592;DHT22;10958;50.892;3.992;2023-09-19T16:11:17;19.70;99.90
21592;DHT22;10958;50.892;3.992;2023-09-19T16:13:43;19.80;99.90
21592;DHT22;10958;50.892;3.992;2023-09-19T16:16:14;19.80;99.90
21592;DHT22;10958;50.892;3.992;2023-09-19T16:18:49;19.80;99.90
21592;DHT22;10958;50.892;3.992;2023-09-19T16:21:19;19.70;99.90
21592;DHT22;10958;50.892;3.992;2023-09-19T16:23:49;19.60;99.90
21592;DHT22;10958;50.892;3.992;2023-09-19T16:26:20;19.70;99.90
21592;DHT22;10958;50.892;3.992;2023-09-19T16:28:47;19.60;99.90
21592;DHT22;10958;50.892;3.992;2023-09-19T16:31:15;19.60;99.90
21592;DHT22;10958;50.892;3.992;2023-09-19T16:33:44;19.50;99.90
21592;DHT22;10958;50.892;3.992;2023-09-19T16:36:14;19.30;99.90
21592;DHT22;10958;50.892;3.992;2023-09-19T16:38:46;19.30;99.90
21592;DHT22;10958;50.892;3.992;2023-09-19T16:41:13;19.20;99.90
21592;DHT22;10958;50.892;3.992;2023-09-19T16:43:42;19.20;99.90
21592;DHT22;10958;50.892;3.992;2023-09-19T16:46:09;19.10;99.90
21592;DHT22;10958;50.892;3.992;2023-09-19T16:48:39;19.00;99.90
21592;DHT22;10958;50.892;3.992;2023-09-19T16:51:11;19.00;99.90
21592;DHT22;10958;50.892;3.992;2023-09-19T16:53:40;18.80;99.90
21592;DHT22;10958;50.892;3.992;2023-09-19T16:56:16;18.80;99.90
21592;DHT22;10958;50.892;3.992;2023-09-19T16:58:48;18.80;99.90